Time;durP1;ratioP1;P1;durP2;ratioP2;P2;SDS_P1;SDS_P2;PMS_P1;PMS_P2;Temp;Humidity;BMP_temperature;BMP_pressure;BME280_temperature;BME280_humidity;BME280_pressure;Samples;Min_cycle;Max_cycle;Signal;HPM_P1;HPM_P2
2021/12/12 00:00:53;;;;;;;2.42;2.25;;;;;;;6.90;100.00;62708.34;5063002;28;20487;-79
2021/12/12 00:03:33;;;;;;;3.45;2.90;;;;;;;6.90;100.00;62710.88;5061582;28;20221;-79
2021/12/12 00:06:02;;;;;;;4.47;4.07;;;;;;;6.92;100.00;62710.44;5067511;28;20258;-79
2021/12/12 00:08:29;;;;;;;4.78;4.22;;;;;;;6.97;100.00;62715.06;5067627;28;20228;-78
2021/12/12 00:11:02;;;;;;;5.53;5.03;;;;;;;7.04;100.00;62724.81;5064697;28;20201;-79
2021/12/12 00:13:37;;;;;;;5.38;4.93;;;;;;;7.13;100.00;62731.56;5060585;28;20225;-78
2021/12/12 00:16:05;;;;;;;10.13;6.78;;;;;;;7.16;100.00;62731.63;5065731;28;20204;-79
2021/12/12 00:18:32;;;;;;;7.15;6.13;;;;;;;6.97;100.00;62715.06;5065975;28;20470;-79
2021/12/12 00:20:59;;;;;;;10.30;9.02;;;;;;;7.03;100.00;62721.78;5054796;28;20490;-79
2021/12/12 00:23:26;;;;;;;10.00;8.85;;;;;;;7.03;100.00;62721.78;5064641;28;20264;-79
2021/12/12 00:25:57;;;;;;;16.38;10.25;;;;;;;6.91;100.00;62708.88;5066137;28;20205;-78
2021/12/12 00:28:25;;;;;;;14.25;11.05;;;;;;;6.96;100.00;62711.50;5065587;28;20221;-79
2021/12/12 00:30:55;;;;;;;15.02;12.02;;;;;;;7.04;100.00;62719.75;5063753;28;20200;-78
2021/12/12 00:33:23;;;;;;;17.85;12.57;;;;;;;6.99;100.00;62717.13;5071907;28;20245;-79
2021/12/12 00:35:51;;;;;;;16.60;12.73;;;;;;;7.03;100.00;62721.78;5065845;28;20223;-79
2021/12/12 00:38:22;;;;;;;16.63;12.60;;;;;;;7.00;100.00;62718.69;5066634;28;20304;-79
2021/12/12 00:40:52;;;;;;;16.05;12.48;;;;;;;6.83;100.00;62701.13;5068461;28;20924;-79
2021/12/12 00:43:26;;;;;;;19.75;13.93;;;;;;;6.98;100.00;62711.56;5065472;28;20225;-80
2021/12/12 00:45:56;;;;;;;15.13;11.65;;;;;;;6.94;100.00;62712.50;5064074;28;20196;-79
2021/12/12 00:48:25;;;;;;;13.13;10.80;;;;;;;6.93;100.00;62710.94;5071731;28;20281;-79
2021/12/12 00:50:52;;;;;;;10.57;9.43;;;;;;;7.00;100.00;62713.63;5056050;28;20253;-78
2021/12/12 00:53:22;;;;;;;15.38;10.20;;;;;;;6.99;100.00;62715.13;5075505;28;20534;-79
2021/12/12 00:55:52;;;;;;;11.27;9.10;;;;;;;7.01;100.00;62716.66;5065336;28;20193;-79
2021/12/12 00:58:20;;;;;;;17.20;12.48;;;;;;;7.01;100.00;62717.19;5073743;28;20280;-78
2021/12/12 01:00:52;;;;;;;14.50;11.52;;;;;;;6.90;100.00;62710.38;5071787;28;20220;-78
2021/12/12 01:03:22;;;;;;;17.20;12.30;;;;;;;6.91;100.00;62709.41;5069405;28;20282;-80
2021/12/12 01:05:51;;;;;;;12.55;10.95;;;;;;;7.02;100.00;62720.25;5077742;28;20216;-79
2021/12/12 01:08:18;;;;;;;14.95;11.60;;;;;;;6.97;100.00;62710.53;5070237;28;20221;-79
2021/12/12 01:10:48;;;;;;;9.30;7.88;;;;;;;6.93;100.00;62710.94;5069333;28;20204;-79
2021/12/12 01:13:15;;;;;;;11.57;9.68;;;;;;;6.96;100.00;62716.56;5069536;28;20230;-78
2021/12/12 01:15:52;;;;;;;12.52;9.90;;;;;;;6.87;100.00;62707.28;5066442;28;20202;-79
2021/12/12 01:18:28;;;;;;;10.23;8.55;;;;;;;6.83;100.00;62701.13;5068781;28;20256;-79
2021/12/12 01:20:58;;;;;;;8.75;7.63;;;;;;;6.95;100.00;62710.47;5068421;28;20811;-78
2021/12/12 01:23:37;;;;;;;9.57;7.75;;;;;;;6.92;100.00;62709.91;5067600;28;20233;-79
2021/12/12 01:26:07;;;;;;;9.05;7.63;;;;;;;6.97;100.00;62712.53;5065185;28;20474;-78
2021/12/12 01:28:36;;;;;;;10.48;8.20;;;;;;;6.94;100.00;62711.97;5068528;28;20225;-78
2021/12/12 01:31:09;;;;;;;10.63;7.97;;;;;;;6.98;100.00;62714.09;5070984;28;20221;-79
2021/12/12 01:33:37;;;;;;;14.30;12.50;;;;;;;6.97;100.00;62717.59;5070696;28;20465;-79
2021/12/12 01:36:06;;;;;;;10.50;9.35;;;;;;;6.94;100.00;62709.44;5063764;28;20283;-79
2021/12/12 01:38:53;;;;;;;13.18;9.93;;;;;;;6.97;100.00;62715.06;5056341;28;20425;-79
2021/12/12 01:41:23;;;;;;;12.00;8.93;;;;;;;6.95;100.00;62713.00;5058257;28;20507;-79
2021/12/12 01:43:54;;;;;;;11.32;8.90;;;;;;;6.89;100.00;62707.34;5068867;28;20424;-79
2021/12/12 01:46:27;;;;;;;13.02;9.00;;;;;;;6.87;100.00;62704.75;5067016;28;20196;-79
2021/12/12 01:48:58;;;;;;;12.57;8.95;;;;;;;6.62;100.00;62679.50;5057479;28;20256;-78
2021/12/12 01:51:26;;;;;;;11.35;8.60;;;;;;;6.66;100.00;62683.09;5054771;28;20249;-78
2021/12/12 01:53:56;;;;;;;11.13;8.18;;;;;;;6.61;100.00;62673.38;5076217;28;20216;-77
2021/12/12 01:56:27;;;;;;;10.48;8.25;;;;;;;6.49;100.00;62665.56;5072871;28;20193;-77
2021/12/12 01:58:58;;;;;;;9.77;8.20;;;;;;;6.48;100.00;62662.53;5065820;28;20237;-79
2021/12/12 02:01:35;;;;;;;14.23;9.80;;;;;;;6.39;100.00;62655.25;5065339;28;20570;-79
2021/12/12 02:04:06;;;;;;;13.85;9.63;;;;;;;6.36;100.00;62657.75;5065669;28;20255;-78
2021/12/12 02:06:35;;;;;;;14.13;10.10;;;;;;;6.25;100.00;62638.28;5068702;28;20204;-77
2021/12/12 02:09:07;;;;;;;15.18;11.27;;;;;;;6.19;100.00;62632.09;5075917;28;20349;-78
2021/12/12 02:11:37;;;;;;;14.25;9.95;;;;;;;6.13;100.00;62631.50;5067599;28;20208;-78
2021/12/12 02:14:11;;;;;;;10.80;9.48;;;;;;;6.13;100.00;62625.91;5055218;28;20225;-79
2021/12/12 02:16:43;;;;;;;12.18;10.27;;;;;;;6.21;100.00;62639.75;5056341;28;20495;-78
2021/12/12 02:19:13;;;;;;;11.57;10.32;;;;;;;6.10;100.00;62623.34;5065881;28;20557;-78
2021/12/12 02:21:57;;;;;;;11.73;10.10;;;;;;;6.20;100.00;62630.59;5067890;28;20528;-78
2021/12/12 02:35:46;;;;;;;12.18;10.07;;;;;;;6.21;100.00;62636.69;5068505;28;20276;-79
2021/12/12 02:38:16;;;;;;;13.65;10.45;;;;;;;6.19;100.00;62635.16;5078971;28;20213;-78
2021/12/12 02:40:47;;;;;;;13.38;10.13;;;;;;;6.22;100.00;62638.25;5068913;28;20233;-79
2021/12/12 02:43:18;;;;;;;11.48;9.95;;;;;;;6.27;100.00;62640.34;5059009;28;20535;-79
2021/12/12 02:45:45;;;;;;;13.25;10.75;;;;;;;6.26;100.00;62644.38;5067967;28;20203;-79
2021/12/12 02:48:17;;;;;;;11.95;9.35;;;;;;;6.03;100.00;62616.13;5081936;28;20221;-79
2021/12/12 02:50:52;;;;;;;11.68;10.10;;;;;;;6.04;100.00;62616.66;5067912;28;20225;-79
2021/12/12 02:53:22;;;;;;;16.67;10.95;;;;;;;5.92;100.00;62606.81;5055810;28;20221;-79
2021/12/12 02:55:54;;;;;;;14.60;10.88;;;;;;;5.82;100.00;62597.00;5058905;28;20225;-78
2021/12/12 02:58:22;;;;;;;16.35;12.35;;;;;;;5.78;100.00;62595.91;5066251;28;20271;-78
2021/12/12 03:00:55;;;;;;;14.60;11.60;;;;;;;5.80;100.00;62592.91;5065047;28;20241;-78
2021/12/12 03:03:22;;;;;;;15.43;12.30;;;;;;;5.82;100.00;62599.53;5065819;28;20220;-78
2021/12/12 03:05:49;;;;;;;12.75;10.73;;;;;;;5.57;100.00;62568.72;5064625;28;20197;-78
2021/12/12 03:08:17;;;;;;;13.07;10.77;;;;;;;5.60;100.00;62571.81;5061244;28;20221;-79
2021/12/12 03:10:47;;;;;;;8.55;7.75;;;;;;;5.45;100.00;62556.34;5058523;28;20201;-79
2021/12/12 03:13:16;;;;;;;8.63;7.82;;;;;;;5.57;100.00;62569.22;5062846;28;20217;-78
2021/12/12 03:15:46;;;;;;;11.32;9.38;;;;;;;5.62;100.00;62576.38;5063696;28;20243;-78
2021/12/12 03:18:16;;;;;;;9.80;8.13;;;;;;;5.47;100.00;62560.94;5053720;28;20289;-79
2021/12/12 03:20:47;;;;;;;10.50;8.68;;;;;;;5.30;100.00;62541.41;5064624;28;20395;-78
2021/12/12 03:23:19;;;;;;;10.73;9.35;;;;;;;5.43;100.00;62554.81;5078984;28;20228;-79
2021/12/12 03:25:48;;;;;;;10.10;9.00;;;;;;;5.40;100.00;62556.25;5059943;28;20551;-79
2021/12/12 03:28:20;;;;;;;11.82;9.85;;;;;;;5.45;100.00;62556.84;5066427;28;20217;-78
2021/12/12 03:30:48;;;;;;;9.45;8.45;;;;;;;5.64;100.00;62578.97;5067558;28;20209;-78
2021/12/12 03:33:15;;;;;;;8.38;7.57;;;;;;;5.60;100.00;62574.31;5066733;28;20537;-78
2021/12/12 03:35:45;;;;;;;8.23;7.43;;;;;;;5.50;100.00;62564.03;5070471;28;20428;-78
2021/12/12 03:38:12;;;;;;;8.13;7.10;;;;;;;5.44;100.00;62560.88;5064600;28;20309;-79
2021/12/12 03:40:41;;;;;;;8.80;6.40;;;;;;;5.48;100.00;62559.44;5067715;28;20237;-78
2021/12/12 03:43:09;;;;;;;9.52;6.82;;;;;;;5.33;100.00;62546.53;5081762;28;20235;-81
2021/12/12 03:45:39;;;;;;;6.65;6.05;;;;;;;5.25;100.00;62535.75;5071340;28;20204;-80
2021/12/12 03:48:10;;;;;;;9.13;6.75;;;;;;;5.00;100.00;62513.06;5068030;28;20217;-79
2021/12/12 03:50:43;;;;;;;9.85;7.57;;;;;;;4.96;100.00;62508.91;5069074;28;20209;-79
2021/12/12 03:53:10;;;;;;;7.95;7.13;;;;;;;5.00;100.00;62510.53;5072728;28;20258;-79
2021/12/12 03:55:38;;;;;;;8.43;7.60;;;;;;;5.08;100.00;62523.81;5065021;28;20257;-79
2021/12/12 03:58:08;;;;;;;7.30;6.60;;;;;;;5.06;100.00;62519.22;5067647;28;20216;-78
2021/12/12 04:00:45;;;;;;;7.13;6.53;;;;;;;5.03;100.00;62518.66;5067913;28;20228;-79
2021/12/12 04:03:13;;;;;;;7.70;6.95;;;;;;;4.96;100.00;62508.91;5069155;28;20224;-79
2021/12/12 04:05:40;;;;;;;6.40;5.53;;;;;;;4.77;100.00;62489.34;5058606;28;20231;-78
2021/12/12 04:08:07;;;;;;;8.68;6.57;;;;;;;4.64;100.00;62471.44;5066483;28;20229;-79
2021/12/12 04:10:34;;;;;;;7.40;6.70;;;;;;;4.82;100.00;62491.47;5067852;28;20307;-79
2021/12/12 04:13:02;;;;;;;7.15;6.45;;;;;;;4.74;100.00;62489.31;5067959;28;20229;-80
2021/12/12 04:15:29;;;;;;;6.38;5.78;;;;;;;4.83;100.00;62495.56;5059855;28;20198;-79
2021/12/12 04:17:57;;;;;;;6.43;5.80;;;;;;;4.90;100.00;62499.72;5060983;28;20221;-80
2021/12/12 04:20:27;;;;;;;5.25;4.85;;;;;;;4.78;100.00;62487.34;5068041;28;20232;-79
2021/12/12 04:22:55;;;;;;;5.68;4.85;;;;;;;4.75;100.00;62482.25;5076564;28;20616;-80
2021/12/12 04:25:22;;;;;;;6.88;5.00;;;;;;;4.78;100.00;62489.88;5059112;28;20206;-79
2021/12/12 04:27:52;;;;;;;8.85;5.03;;;;;;;4.69;100.00;62483.66;5063232;28;20256;-78
2021/12/12 04:30:19;;;;;;;5.85;5.30;;;;;;;4.56;100.00;62468.25;5066710;28;20252;-78
2021/12/12 04:32:47;;;;;;;7.68;5.95;;;;;;;4.45;100.00;62453.91;5074881;28;20222;-79
2021/12/12 04:35:20;;;;;;;7.55;6.90;;;;;;;4.54;100.00;62466.19;5072014;28;20479;-79
2021/12/12 04:37:47;;;;;;;8.13;6.88;;;;;;;4.72;100.00;62484.75;5063162;28;20394;-78
2021/12/12 04:40:18;;;;;;;7.45;6.60;;;;;;;4.78;100.00;62484.84;5066276;28;20419;-78
2021/12/12 04:42:47;;;;;;;6.13;5.55;;;;;;;4.69;100.00;62483.66;5067537;28;20267;-79
2021/12/12 04:45:37;;;;;;;4.30;4.05;;;;;;;4.61;100.00;62475.94;5067445;28;20440;-79
2021/12/12 04:51:03;;;;;;;3.92;3.63;;;;;;;4.25;100.00;62435.84;5069386;28;20232;-79
2021/12/12 04:53:33;;;;;;;3.67;3.38;;;;;;;4.03;100.00;62415.72;5067976;28;20224;-79
2021/12/12 04:56:07;;;;;;;4.55;4.13;;;;;;;4.10;100.00;62417.88;5066799;28;20197;-79
2021/12/12 04:58:40;;;;;;;3.97;3.67;;;;;;;4.20;100.00;62428.16;5067873;28;20600;-80
2021/12/12 05:01:12;;;;;;;4.75;4.07;;;;;;;4.16;100.00;62424.06;5069192;28;20259;-79
2021/12/12 05:03:50;;;;;;;4.10;3.80;;;;;;;4.19;100.00;62424.63;5066614;28;20217;-79
2021/12/12 05:06:26;;;;;;;4.60;4.20;;;;;;;4.21;100.00;62431.72;5058519;28;20263;-80
2021/12/12 05:09:07;;;;;;;4.78;4.38;;;;;;;3.95;100.00;62402.97;5064414;28;20228;-78
2021/12/12 05:11:45;;;;;;;3.90;3.60;;;;;;;3.84;100.00;62391.13;5060939;28;20197;-79
2021/12/12 05:14:21;;;;;;;4.78;4.38;;;;;;;3.52;100.00;62358.75;5078334;28;20614;-81
2021/12/12 05:16:52;;;;;;;6.40;5.90;;;;;;;3.74;100.00;62381.38;5059953;28;20201;-79
2021/12/12 05:19:25;;;;;;;6.90;6.35;;;;;;;3.81;100.00;62385.53;5062550;28;20221;-80
2021/12/12 05:22:03;;;;;;;5.95;5.50;;;;;;;3.89;100.00;62398.81;5059426;28;20202;-79
2021/12/12 05:24:32;;;;;;;6.43;5.82;;;;;;;3.47;100.00;62356.63;5082782;28;20507;-78
2021/12/12 05:27:09;;;;;;;5.10;4.70;;;;;;;3.41;100.00;62353.00;5080899;28;20221;-81
2021/12/12 05:29:45;;;;;;;5.68;5.28;;;;;;;3.35;100.00;62344.31;5062076;28;20206;-80
2021/12/12 05:32:17;;;;;;;3.67;3.38;;;;;;;3.04;100.00;62314.94;5079563;28;20273;-79
2021/12/12 05:34:50;;;;;;;3.72;3.42;;;;;;;2.80;100.00;62287.78;5069292;28;20310;-80
2021/12/12 05:37:20;;;;;;;4.15;3.85;;;;;;;2.90;100.00;62300.06;5069263;28;20197;-79
2021/12/12 05:39:48;;;;;;;4.13;3.78;;;;;;;2.86;100.00;62293.44;5063836;28;20229;-79
2021/12/12 05:42:16;;;;;;;3.53;3.22;;;;;;;2.95;100.00;62303.19;5073001;28;20228;-80
2021/12/12 05:44:45;;;;;;;3.90;3.60;;;;;;;2.97;100.00;62304.75;5078176;28;20211;-81
2021/12/12 05:47:14;;;;;;;2.30;2.20;;;;;;;2.56;100.00;62260.06;5078573;28;20205;-80
2021/12/12 05:49:43;;;;;;;2.80;2.70;;;;;;;2.61;100.00;62267.72;5066080;28;20211;-80
2021/12/12 05:52:15;;;;;;;2.85;2.70;;;;;;;2.40;100.00;62246.66;5079108;28;20212;-80
2021/12/12 05:54:47;;;;;;;2.70;2.50;;;;;;;2.21;100.00;62224.66;5072565;28;20205;-80
2021/12/12 05:57:19;;;;;;;4.40;2.72;;;;;;;2.38;100.00;62247.16;5066424;28;20205;-79
2021/12/12 05:59:51;;;;;;;2.67;2.58;;;;;;;2.36;100.00;62240.56;5067086;28;20225;-79
2021/12/12 06:02:19;;;;;;;2.58;2.47;;;;;;;2.25;100.00;62231.28;5084810;28;20193;-81
2021/12/12 06:04:47;;;;;;;2.75;2.65;;;;;;;2.36;100.00;62240.56;5072246;28;20239;-78
2021/12/12 06:07:20;;;;;;;2.45;2.30;;;;;;;2.03;100.00;62208.69;5066146;28;20201;-79
2021/12/12 06:09:52;;;;;;;2.72;2.63;;;;;;;2.12;100.00;62215.41;5070431;28;20421;-79
2021/12/12 06:12:22;;;;;;;2.08;1.92;;;;;;;1.99;100.00;62207.59;5071738;28;20213;-79
2021/12/12 06:14:50;;;;;;;2.60;2.50;;;;;;;1.96;100.00;62198.97;5068433;28;20204;-79
2021/12/12 06:17:19;;;;;;;4.13;3.78;;;;;;;2.14;100.00;62220.47;5070627;28;20204;-79
2021/12/12 06:19:50;;;;;;;4.07;3.78;;;;;;;2.05;100.00;62206.22;5067461;28;20205;-79
2021/12/12 06:22:22;;;;;;;4.97;4.57;;;;;;;1.79;100.00;62184.56;5085256;28;20201;-79
2021/12/12 06:24:53;;;;;;;4.20;3.90;;;;;;;1.94;100.00;62197.44;5067171;28;20267;-79
2021/12/12 06:27:22;;;;;;;3.63;3.38;;;;;;;1.98;100.00;62203.56;5070477;28;20221;-79
2021/12/12 06:29:52;;;;;;;4.05;3.75;;;;;;;1.99;100.00;62202.06;5071446;28;20229;-80
2021/12/12 06:32:24;;;;;;;4.63;4.22;;;;;;;2.05;100.00;62213.75;5076399;28;20541;-80
2021/12/12 06:34:57;;;;;;;4.10;3.80;;;;;;;1.85;100.00;62192.69;5063191;28;20499;-79
2021/12/12 06:37:31;;;;;;;3.88;3.50;;;;;;;1.70;100.00;62174.81;5071019;28;20204;-80
2021/12/12 06:40:00;;;;;;;4.15;3.85;;;;;;;1.86;100.00;62186.72;5071409;28;20233;-80
2021/12/12 06:42:29;;;;;;;3.00;2.80;;;;;;;1.89;100.00;62191.78;5072412;28;20261;-80
2021/12/12 06:44:56;;;;;;;1.85;1.77;;;;;;;1.71;100.00;62178.84;5069421;28;20273;-80
2021/12/12 06:47:24;;;;;;;3.70;3.40;;;;;;;1.73;100.00;62175.88;5058404;28;20194;-79
2021/12/12 06:49:54;;;;;;;3.60;3.40;;;;;;;1.85;100.00;62192.69;5064581;28;20205;-78
2021/12/12 06:52:23;;;;;;;3.63;3.35;;;;;;;1.81;100.00;62181.56;5091313;28;20213;-78
2021/12/12 06:54:55;;;;;;;2.42;2.22;;;;;;;1.63;100.00;62167.63;5065322;28;20213;-79
2021/12/12 06:57:23;;;;;;;11.10;8.05;;;;;;;1.64;100.00;62169.16;5059742;28;20344;-79
2021/12/12 06:59:52;;;;;;;9.02;6.68;;;;;;;1.61;100.00;62163.56;5068613;28;20244;-78
2021/12/12 07:02:23;;;;;;;3.05;2.85;;;;;;;1.63;100.00;62168.13;5061275;28;20236;-78
2021/12/12 07:04:51;;;;;;;2.40;2.20;;;;;;;1.66;100.00;62168.19;5060973;28;20259;-78
2021/12/12 07:07:20;;;;;;;2.28;2.15;;;;;;;1.62;100.00;62164.59;5065641;28;20224;-78
2021/12/12 07:09:51;;;;;;;3.28;3.00;;;;;;;1.65;100.00;62167.69;5066271;28;20482;-78
2021/12/12 07:12:22;;;;;;;3.85;2.53;;;;;;;1.53;100.00;62155.38;5065922;28;20197;-79
2021/12/12 07:14:54;;;;;;;2.65;2.22;;;;;;;1.48;100.00;62155.25;5064364;28;20325;-78
2021/12/12 07:17:23;;;;;;;3.95;2.03;;;;;;;1.61;100.00;62163.56;5069346;28;20235;-79
2021/12/12 07:19:51;;;;;;;2.28;2.08;;;;;;;1.70;100.00;62167.28;5051257;28;20217;-78
2021/12/12 07:22:18;;;;;;;1.70;1.70;;;;;;;1.83;100.00;62186.16;5062365;28;20210;-78
2021/12/12 07:24:45;;;;;;;1.77;1.67;;;;;;;1.88;100.00;62193.78;5064785;28;20197;-78
2021/12/12 07:27:14;;;;;;;2.17;2.08;;;;;;;1.73;100.00;62177.88;5064195;28;20418;-78
2021/12/12 07:29:41;;;;;;;1.85;1.75;;;;;;;1.69;100.00;62173.78;5064686;28;20209;-77
2021/12/12 07:32:11;;;;;;;2.15;2.05;;;;;;;1.76;100.00;62178.47;5064678;28;20201;-78
2021/12/12 07:34:38;;;;;;;1.98;1.83;;;;;;;1.92;100.00;62194.88;5064380;28;20247;-79
2021/12/12 07:37:09;;;;;;;2.38;2.28;;;;;;;1.94;100.00;62196.94;5069194;28;20248;-79
2021/12/12 07:39:39;;;;;;;3.08;2.83;;;;;;;2.10;100.00;62215.88;5071453;28;20363;-79
2021/12/12 07:42:08;;;;;;;1.90;1.80;;;;;;;1.90;100.00;62193.34;5067243;28;20278;-79
2021/12/12 07:44:37;;;;;;;2.35;2.25;;;;;;;1.71;100.00;62178.34;5059869;28;20224;-80
2021/12/12 07:47:06;;;;;;;7.30;5.82;;;;;;;1.59;100.00;62159.00;5081910;28;20393;-81
2021/12/12 07:49:37;;;;;;;1.63;1.52;;;;;;;1.52;100.00;62156.84;5067894;28;20237;-79
2021/12/12 07:52:07;;;;;;;1.60;1.50;;;;;;;1.34;100.00;62138.38;5055182;28;20420;-80
2021/12/12 07:54:35;;;;;;;1.60;1.50;;;;;;;0.89;100.00;62097.22;5068133;28;20360;-81
2021/12/12 07:57:06;;;;;;;1.70;1.60;;;;;;;0.89;100.00;62090.22;5061258;28;20242;-80
2021/12/12 07:59:35;;;;;;;1.63;1.63;;;;;;;1.06;100.00;62107.66;5081122;28;20246;-79
2021/12/12 08:02:03;;;;;;;2.00;1.90;;;;;;;1.21;100.00;62124.53;5058574;28;20251;-80
2021/12/12 08:04:31;;;;;;;2.05;1.95;;;;;;;1.30;100.00;62128.72;5062145;28;20244;-82
2021/12/12 08:07:01;;;;;;;2.45;2.28;;;;;;;1.31;100.00;62132.78;5058762;28;20251;-81
2021/12/12 08:09:29;;;;;;;1.88;1.77;;;;;;;1.55;100.00;62154.91;5073849;28;20221;-81
2021/12/12 08:11:56;;;;;;;2.60;2.40;;;;;;;1.56;100.00;62157.91;5068447;28;20201;-80
2021/12/12 08:14:28;;;;;;;7.40;5.15;;;;;;;1.65;100.00;62167.16;5068374;28;20217;-82
2021/12/12 08:16:56;;;;;;;4.25;3.50;;;;;;;1.77;100.00;62179.47;5069485;28;20235;-80
2021/12/12 08:19:26;;;;;;;4.35;4.00;;;;;;;1.89;100.00;62194.31;5065580;28;20217;-81
2021/12/12 08:21:54;;;;;;;2.58;2.25;;;;;;;1.96;100.00;62199.50;5067387;28;20254;-81
2021/12/12 08:24:23;;;;;;;2.97;2.85;;;;;;;1.95;100.00;62198.47;5070652;28;20224;-81
2021/12/12 08:26:52;;;;;;;4.22;2.45;;;;;;;2.04;100.00;62212.72;5062497;28;20252;-81
2021/12/12 08:29:20;;;;;;;9.38;6.60;;;;;;;2.11;100.00;62219.41;5065963;28;20217;-82
2021/12/12 08:31:48;;;;;;;3.00;2.70;;;;;;;2.07;100.00;62215.31;5067590;28;20197;-81
2021/12/12 08:34:15;;;;;;;3.13;2.92;;;;;;;2.05;100.00;62210.75;5068752;28;20217;-82
2021/12/12 08:36:46;;;;;;;2.60;2.40;;;;;;;2.03;100.00;62211.19;5062649;28;20312;-80
2021/12/12 08:39:14;;;;;;;2.58;2.38;;;;;;;1.88;100.00;62193.28;5070587;28;20228;-80
2021/12/12 08:41:45;;;;;;;2.80;2.60;;;;;;;1.85;100.00;62192.69;5068980;28;20423;-80
2021/12/12 08:44:14;;;;;;;4.05;2.72;;;;;;;1.64;100.00;62168.66;5063164;28;20406;-81
2021/12/12 08:46:45;;;;;;;4.07;3.00;;;;;;;1.80;100.00;62182.56;5063340;28;20209;-82
2021/12/12 08:49:13;;;;;;;3.00;2.80;;;;;;;1.84;100.00;62186.66;5063536;28;20217;-81
2021/12/12 08:51:45;;;;;;;3.42;2.53;;;;;;;1.81;100.00;62188.59;5063706;28;20204;-81
2021/12/12 08:54:22;;;;;;;2.38;2.28;;;;;;;1.72;100.00;62174.34;5070202;28;20221;-82
2021/12/12 08:56:55;;;;;;;3.65;3.35;;;;;;;1.78;100.00;62183.53;5079636;28;20203;-81
2021/12/12 08:59:25;;;;;;;3.17;2.80;;;;;;;1.72;100.00;62177.38;5070911;28;20289;-80
2021/12/12 09:01:55;;;;;;;2.97;2.78;;;;;;;1.75;100.00;62179.94;5068662;28;20228;-81
2021/12/12 09:04:23;;;;;;;2.92;2.78;;;;;;;1.82;100.00;62182.63;5073309;28;20224;-82
2021/12/12 09:06:56;;;;;;;3.40;3.20;;;;;;;1.55;100.00;62157.41;5064643;28;20276;-81
2021/12/12 09:09:25;;;;;;;12.10;8.98;;;;;;;1.75;100.00;62179.94;5063282;28;20218;-82
2021/12/12 09:11:59;;;;;;;3.80;3.50;;;;;;;1.73;100.00;62175.38;5069909;28;20197;-80
2021/12/12 09:14:33;;;;;;;3.47;3.28;;;;;;;1.73;100.00;62180.38;5073635;28;20240;-80
2021/12/12 09:17:04;;;;;;;4.13;3.83;;;;;;;1.53;100.00;62157.88;5073869;28;20205;-80
2021/12/12 09:19:36;;;;;;;3.35;3.05;;;;;;;1.53;100.00;62162.38;5066619;28;20402;-80
2021/12/12 09:22:09;;;;;;;3.22;3.03;;;;;;;1.46;100.00;62150.69;5085203;28;20255;-80
2021/12/12 09:24:45;;;;;;;4.03;3.63;;;;;;;1.37;100.00;62138.94;5072117;28;20221;-80
2021/12/12 09:27:20;;;;;;;3.67;3.38;;;;;;;1.44;100.00;62150.63;5070859;28;20603;-81
2021/12/12 09:29:53;;;;;;;7.82;3.58;;;;;;;1.09;100.00;62110.72;5069314;28;20200;-80
2021/12/12 09:32:28;;;;;;;3.40;3.17;;;;;;;1.17;100.00;62120.94;5071730;28;20208;-80
2021/12/12 09:35:00;;;;;;;4.45;4.15;;;;;;;1.19;100.00;62123.00;5071383;28;20232;-80
2021/12/12 09:37:34;;;;;;;4.00;3.70;;;;;;;1.33;100.00;62137.34;5069937;28;20265;-80
2021/12/12 09:40:09;;;;;;;4.05;3.72;;;;;;;1.38;100.00;62141.97;5065011;28;20216;-80
2021/12/12 09:42:58;;;;;;;4.88;4.10;;;;;;;1.35;100.00;62138.88;5058011;28;20233;-80
2021/12/12 09:45:54;;;;;;;4.05;3.75;;;;;;;1.50;100.00;62159.28;5068726;28;20198;-82
2021/12/12 09:52:30;;;;;;;5.18;4.68;;;;;;;1.18;100.00;62121.94;5062441;28;20212;-81
2021/12/12 09:55:06;;;;;;;2.80;2.60;;;;;;;1.08;100.00;62112.22;5073424;28;20227;-80
2021/12/12 09:57:40;;;;;;;3.88;3.67;;;;;;;0.81;100.00;62087.00;5082097;28;20256;-81
2021/12/12 10:00:15;;;;;;;3.35;3.10;;;;;;;0.84;100.00;62085.09;5076878;28;20204;-80
2021/12/12 10:03:02;;;;;;;2.40;2.00;;;;;;;0.57;100.00;62056.91;5083778;28;20232;-80
2021/12/12 10:05:39;;;;;;;4.57;4.10;;;;;;;0.46;100.00;62045.59;5070776;28;20218;-80
2021/12/12 10:08:13;;;;;;;3.35;3.15;;;;;;;0.55;100.00;62057.84;5066500;28;20222;-80
2021/12/12 10:10:52;;;;;;;3.63;3.42;;;;;;;0.27;100.00;62031.66;5068507;28;20201;-81
2021/12/12 10:13:25;;;;;;;5.00;4.50;;;;;;;0.26;100.00;62025.63;5070620;28;20300;-80
2021/12/12 10:16:00;;;;;;;3.47;3.20;;;;;;;0.11;100.00;62012.75;5069458;28;20205;-81
2021/12/12 10:18:40;;;;;;;3.55;3.33;;;;;;;0.42;100.00;62042.03;5068712;28;20437;-80
2021/12/12 10:21:12;;;;;;;3.50;3.20;;;;;;;0.51;100.00;62051.25;5063907;28;20227;-79
2021/12/12 10:23:55;;;;;;;4.03;3.70;;;;;;;0.87;100.00;62090.66;5064931;28;20220;-80
2021/12/12 10:26:26;;;;;;;4.20;3.90;;;;;;;0.88;100.00;62091.69;5074630;28;20272;-79
2021/12/12 10:28:57;;;;;;;3.88;3.58;;;;;;;0.93;100.00;62093.81;5081429;28;20224;-77
2021/12/12 10:31:30;;;;;;;2.92;2.60;;;;;;;0.90;100.00;62088.72;5066575;28;20209;-78
2021/12/12 10:34:02;;;;;;;3.72;3.42;;;;;;;1.00;100.00;62101.50;5064966;28;20231;-79
2021/12/12 10:36:33;;;;;;;6.78;6.07;;;;;;;0.96;100.00;62097.41;5067976;28;20212;-78
2021/12/12 10:39:06;;;;;;;6.40;4.32;;;;;;;1.00;100.00;62103.50;5053052;28;20240;-78
2021/12/12 10:41:39;;;;;;;4.75;4.35;;;;;;;0.99;100.00;62097.97;5068475;28;20232;-79
2021/12/12 10:44:12;;;;;;;5.00;4.55;;;;;;;1.04;100.00;62105.06;5063903;28;20225;-78
2021/12/12 10:46:50;;;;;;;4.53;4.13;;;;;;;1.06;100.00;62109.63;5067243;28;20219;-79
2021/12/12 10:49:23;;;;;;;5.55;4.25;;;;;;;1.22;100.00;62128.56;5064973;28;20225;-79
2021/12/12 10:51:55;;;;;;;5.68;5.18;;;;;;;1.07;100.00;62111.19;5060794;28;20202;-79
2021/12/12 10:54:27;;;;;;;9.00;7.07;;;;;;;1.19;100.00;62120.47;5068111;28;20225;-79
2021/12/12 10:57:02;;;;;;;9.90;5.30;;;;;;;1.49;100.00;62155.75;5066401;28;20201;-79
2021/12/12 10:59:31;;;;;;;4.50;4.15;;;;;;;1.35;100.00;62136.88;5066462;28;20286;-78
2021/12/12 11:02:03;;;;;;;10.43;8.05;;;;;;;1.22;100.00;62120.53;5066540;28;20328;-79
2021/12/12 11:04:40;;;;;;;6.30;5.28;;;;;;;1.46;100.00;62148.19;5066915;28;20225;-79
2021/12/12 11:07:12;;;;;;;5.68;5.15;;;;;;;1.63;100.00;62170.13;5062471;28;20239;-79
2021/12/12 11:09:44;;;;;;;5.72;5.22;;;;;;;1.63;100.00;62165.63;5060531;28;20197;-80
2021/12/12 11:12:17;;;;;;;6.18;5.68;;;;;;;1.68;100.00;62172.75;5067919;28;20262;-80
2021/12/12 11:14:54;;;;;;;7.03;6.32;;;;;;;1.69;100.00;62171.78;5068990;28;20232;-80
2021/12/12 11:17:29;;;;;;;15.57;10.27;;;;;;;1.87;100.00;62192.25;5063796;28;20193;-79
2021/12/12 11:20:01;;;;;;;5.80;5.22;;;;;;;1.92;100.00;62197.38;5068210;28;20271;-81
2021/12/12 11:22:33;;;;;;;6.30;5.32;;;;;;;1.92;100.00;62192.34;5069441;28;20274;-80
2021/12/12 11:25:06;;;;;;;5.47;4.97;;;;;;;2.10;100.00;62210.84;5070129;28;20201;-81
2021/12/12 11:27:37;;;;;;;5.13;4.63;;;;;;;2.06;100.00;62209.25;5059774;28;20222;-80
2021/12/12 11:30:10;;;;;;;20.83;12.35;;;;;;;1.86;100.00;62188.72;5069935;28;20212;-80
2021/12/12 11:32:39;;;;;;;5.20;4.80;;;;;;;1.92;100.00;62197.38;5071564;28;20402;-80
2021/12/12 11:35:11;;;;;;;4.40;4.00;;;;;;;1.91;100.00;62194.38;5069091;28;20201;-80
2021/12/12 11:37:44;;;;;;;4.25;4.05;;;;;;;1.84;100.00;62191.69;5058082;28;20515;-80
2021/12/12 11:40:19;;;;;;;3.30;3.13;;;;;;;1.84;100.00;62186.66;5051063;28;20198;-80
2021/12/12 11:42:49;;;;;;;4.32;3.72;;;;;;;1.70;100.00;62172.28;5065206;28;20281;-80
2021/12/12 11:45:23;;;;;;;3.83;3.53;;;;;;;1.63;100.00;62168.13;5069447;28;20263;-80
2021/12/12 11:48:01;;;;;;;2.90;2.70;;;;;;;1.66;100.00;62166.19;5067781;28;20229;-80
2021/12/12 11:50:38;;;;;;;3.63;3.33;;;;;;;1.66;100.00;62171.22;5070958;28;20211;-79
2021/12/12 11:53:12;;;;;;;25.40;15.25;;;;;;;1.73;100.00;62175.88;5059691;28;20220;-80
2021/12/12 11:55:43;;;;;;;4.28;3.97;;;;;;;1.62;100.00;62162.09;5074742;28;20200;-81
2021/12/12 11:58:19;;;;;;;5.40;4.90;;;;;;;1.54;100.00;62156.38;5071415;28;20228;-81
2021/12/12 12:00:51;;;;;;;6.00;5.43;;;;;;;1.53;100.00;62157.88;5084229;28;20231;-80
2021/12/12 12:03:28;;;;;;;7.97;6.50;;;;;;;1.43;100.00;62150.13;5070264;28;20304;-80
2021/12/12 12:06:13;;;;;;;7.28;6.22;;;;;;;1.36;100.00;62137.91;5058459;28;20201;-80